sensor_id;sensor_type;location;lat;lon;timestamp;pressure;altitude;pressure_sealevel;temperature;humidity
83191;BME280;73087;49.924;22.080;2024-02-16T00:00:48;99580.84;;;3.18;74.89
83191;BME280;73087;49.924;22.080;2024-02-16T00:01:49;99580.84;;;3.18;75.32
83191;BME280;73087;49.924;22.080;2024-02-16T00:02:49;99587.72;;;3.19;75.10
83191;BME280;73087;49.924;22.080;2024-02-16T00:03:50;99589.41;;;3.20;76.11
83191;BME280;73087;49.924;22.080;2024-02-16T00:04:50;99585.00;;;3.22;76.17
83191;BME280;73087;49.924;22.080;2024-02-16T00:05:51;99596.16;;;3.24;75.02
83191;BME280;73087;49.924;22.080;2024-02-16T00:06:52;99590.97;;;3.24;74.77
83191;BME280;73087;49.924;22.080;2024-02-16T00:07:52;99597.00;;;3.25;76.44
83191;BME280;73087;49.924;22.080;2024-02-16T00:08:53;99587.47;;;3.25;75.27
83191;BME280;73087;49.924;22.080;2024-02-16T00:09:53;99585.78;;;3.24;74.68
83191;BME280;73087;49.924;22.080;2024-02-16T00:10:56;99590.97;;;3.24;74.40
83191;BME280;73087;49.924;22.080;2024-02-16T00:11:56;99582.25;;;3.25;74.60
83191;BME280;73087;49.924;22.080;2024-02-16T00:12:57;99582.25;;;3.25;76.25
83191;BME280;73087;49.924;22.080;2024-02-16T00:13:57;99582.25;;;3.25;75.75
83191;BME280;73087;49.924;22.080;2024-02-16T00:14:58;99585.63;;;3.27;74.76
83191;BME280;73087;49.924;22.080;2024-02-16T00:16:01;99582.13;;;3.28;75.63
83191;BME280;73087;49.924;22.080;2024-02-16T00:17:02;99573.56;;;3.26;75.31
83191;BME280;73087;49.924;22.080;2024-02-16T00:18:02;99575.13;;;3.30;74.59
83191;BME280;73087;49.924;22.080;2024-02-16T00:19:03;99575.13;;;3.30;76.27
83191;BME280;73087;49.924;22.080;2024-02-16T00:20:04;99576.78;;;3.31;76.07
83191;BME280;73087;49.924;22.080;2024-02-16T00:21:05;99575.97;;;3.31;74.33
83191;BME280;73087;49.924;22.080;2024-02-16T00:22:06;99576.78;;;3.31;74.83
83191;BME280;73087;49.924;22.080;2024-02-16T00:23:06;99569.78;;;3.33;74.68
83191;BME280;73087;49.924;22.080;2024-02-16T00:24:07;99577.53;;;3.35;74.47
83191;BME280;73087;49.924;22.080;2024-02-16T00:25:08;99578.38;;;3.35;76.10
83191;BME280;73087;49.924;22.080;2024-02-16T00:26:08;99573.19;;;3.35;74.39
83191;BME280;73087;49.924;22.080;2024-02-16T00:27:09;99561.50;;;3.25;75.25
83191;BME280;73087;49.924;22.080;2024-02-16T00:28:09;99569.78;;;3.33;74.75
83191;BME280;73087;49.924;22.080;2024-02-16T00:29:10;99578.47;;;3.32;75.76
83191;BME280;73087;49.924;22.080;2024-02-16T00:30:11;99566.56;;;3.28;75.18
83191;BME280;73087;49.924;22.080;2024-02-16T00:31:13;99570.06;;;3.27;74.13
83191;BME280;73087;49.924;22.080;2024-02-16T00:32:14;99580.31;;;3.30;74.37
83191;BME280;73087;49.924;22.080;2024-02-16T00:33:15;99576.78;;;3.31;75.54
83191;BME280;73087;49.924;22.080;2024-02-16T00:34:15;99568.53;;;3.23;74.72
83191;BME280;73087;49.924;22.080;2024-02-16T00:35:16;99568.53;;;3.23;74.99
83191;BME280;73087;49.924;22.080;2024-02-16T00:36:16;99572.16;;;3.19;74.85
83191;BME280;73087;49.924;22.080;2024-02-16T00:37:17;99565.44;;;3.15;74.75
83191;BME280;73087;49.924;22.080;2024-02-16T00:38:17;99566.38;;;3.13;73.90
83191;BME280;73087;49.924;22.080;2024-02-16T00:39:18;99567.38;;;3.10;75.28
83191;BME280;73087;49.924;22.080;2024-02-16T00:40:19;99569.19;;;3.08;73.84
83191;BME280;73087;49.924;22.080;2024-02-16T00:41:20;99571.03;;;3.06;74.37
83191;BME280;73087;49.924;22.080;2024-02-16T00:42:20;99565.97;;;3.03;73.85
83191;BME280;73087;49.924;22.080;2024-02-16T00:43:21;99572.94;;;3.01;75.41
83191;BME280;73087;49.924;22.080;2024-02-16T00:44:21;99574.75;;;2.99;74.26
83191;BME280;73087;49.924;22.080;2024-02-16T00:45:22;99506.41;;;2.62;75.57
83191;BME280;73087;49.924;22.080;2024-02-16T00:46:24;99557.78;;;2.93;74.19
83191;BME280;73087;49.924;22.080;2024-02-16T00:47:24;99564.66;;;2.94;75.08
83191;BME280;73087;49.924;22.080;2024-02-16T00:48:25;99571.66;;;2.92;74.97
83191;BME280;73087;49.924;22.080;2024-02-16T00:49:25;99563.97;;;2.90;73.92
83191;BME280;73087;49.924;22.080;2024-02-16T00:50:26;99568.28;;;2.90;75.03
83191;BME280;73087;49.924;22.080;2024-02-16T00:51:27;99561.50;;;2.87;75.53
83191;BME280;73087;49.924;22.080;2024-02-16T00:52:27;99573.47;;;2.90;74.28
83191;BME280;73087;49.924;22.080;2024-02-16T00:53:28;99568.28;;;2.90;75.12
83191;BME280;73087;49.924;22.080;2024-02-16T00:54:28;99566.59;;;2.89;75.12
83191;BME280;73087;49.924;22.080;2024-02-16T00:55:29;99565.06;;;2.85;74.86
83191;BME280;73087;49.924;22.080;2024-02-16T00:56:29;99563.25;;;2.87;75.49
83191;BME280;73087;49.924;22.080;2024-02-16T00:57:30;99565.06;;;2.85;74.44
83191;BME280;73087;49.924;22.080;2024-02-16T00:58:30;99558.06;;;2.87;74.63
83191;BME280;73087;49.924;22.080;2024-02-16T00:59:31;99558.91;;;2.87;75.71
83191;BME280;73087;49.924;22.080;2024-02-16T01:00:32;99561.41;;;2.89;74.51
83191;BME280;73087;49.924;22.080;2024-02-16T01:01:33;99559.59;;;2.91;73.98
83191;BME280;73087;49.924;22.080;2024-02-16T01:02:34;99563.88;;;2.92;74.32
83191;BME280;73087;49.924;22.080;2024-02-16T01:03:35;99556.09;;;2.92;74.11
83191;BME280;73087;49.924;22.080;2024-02-16T01:04:35;99559.59;;;2.91;75.21
83191;BME280;73087;49.924;22.080;2024-02-16T01:05:36;99559.59;;;2.91;73.79
83191;BME280;73087;49.924;22.080;2024-02-16T01:06:36;99558.81;;;2.89;73.92
83191;BME280;73087;49.924;22.080;2024-02-16T01:07:37;99549.75;;;2.79;73.72
83191;BME280;73087;49.924;22.080;2024-02-16T01:08:37;99560.00;;;2.82;74.34
83191;BME280;73087;49.924;22.080;2024-02-16T01:09:38;99557.53;;;2.79;75.31
83191;BME280;73087;49.924;22.080;2024-02-16T01:10:38;99553.41;;;2.75;75.22
83191;BME280;73087;49.924;22.080;2024-02-16T01:11:41;99550.03;;;2.73;74.04
83191;BME280;73087;49.924;22.080;2024-02-16T01:12:41;99557.00;;;2.71;75.51
83191;BME280;73087;49.924;22.080;2024-02-16T01:13:42;99557.00;;;2.71;74.84
83191;BME280;73087;49.924;22.080;2024-02-16T01:14:42;99553.63;;;2.69;74.88
83191;BME280;73087;49.924;22.080;2024-02-16T01:15:44;99553.75;;;2.66;74.53
83191;BME280;73087;49.924;22.080;2024-02-16T01:16:45;99554.75;;;2.63;74.47
83191;BME280;73087;49.924;22.080;2024-02-16T01:17:46;99560.78;;;2.64;75.89
83191;BME280;73087;49.924;22.080;2024-02-16T01:18:47;99545.34;;;2.61;74.77
83191;BME280;73087;49.924;22.080;2024-02-16T01:19:47;99547.16;;;2.59;74.80
83191;BME280;73087;49.924;22.080;2024-02-16T01:20:48;99557.53;;;2.59;74.65
83191;BME280;73087;49.924;22.080;2024-02-16T01:21:48;99554.03;;;2.60;74.78
83191;BME280;73087;49.924;22.080;2024-02-16T01:22:49;99555.72;;;2.61;74.63
83191;BME280;73087;49.924;22.080;2024-02-16T01:23:49;99548.84;;;2.60;74.74
83191;BME280;73087;49.924;22.080;2024-02-16T01:24:50;99542.09;;;2.56;75.76
83191;BME280;73087;49.924;22.080;2024-02-16T01:25:50;99550.91;;;2.52;75.83
83191;BME280;73087;49.924;22.080;2024-02-16T01:26:51;99551.06;;;2.49;75.49
83191;BME280;73087;49.924;22.080;2024-02-16T01:27:51;99554.56;;;2.48;74.55
83191;BME280;73087;49.924;22.080;2024-02-16T01:28:52;99547.56;;;2.50;74.91
83191;BME280;73087;49.924;22.080;2024-02-16T01:29:52;99544.19;;;2.48;76.17
83191;BME280;73087;49.924;22.080;2024-02-16T01:30:53;99556.22;;;2.49;75.57
83191;BME280;73087;49.924;22.080;2024-02-16T01:31:55;99537.19;;;2.50;75.56
83191;BME280;73087;49.924;22.080;2024-02-16T01:32:55;99551.81;;;2.51;75.48
83191;BME280;73087;49.924;22.080;2024-02-16T01:33:56;99547.41;;;2.53;76.54
83191;BME280;73087;49.924;22.080;2024-02-16T01:34:56;99548.19;;;2.55;74.73
83191;BME280;73087;49.924;22.080;2024-02-16T01:35:57;99550.78;;;2.55;74.83
83191;BME280;73087;49.924;22.080;2024-02-16T01:36:57;99543.78;;;2.57;75.92
83191;BME280;73087;49.924;22.080;2024-02-16T01:37:58;99552.34;;;2.59;75.90
83191;BME280;73087;49.924;22.080;2024-02-16T01:38:59;99543.66;;;2.60;76.13
83191;BME280;73087;49.924;22.080;2024-02-16T01:39:59;99541.84;;;2.62;76.31
83191;BME280;73087;49.924;22.080;2024-02-16T01:41:00;99541.72;;;2.65;75.45
83191;BME280;73087;49.924;22.080;2024-02-16T01:42:00;99541.72;;;2.65;75.85
83191;BME280;73087;49.924;22.080;2024-02-16T01:43:01;99541.56;;;2.68;74.51
83191;BME280;73087;49.924;22.080;2024-02-16T01:44:01;99538.06;;;2.69;75.53
83191;BME280;73087;49.924;22.080;2024-02-16T01:45:02;99543.25;;;2.69;75.88
83191;BME280;73087;49.924;22.080;2024-02-16T01:46:03;99541.44;;;2.71;74.84
83191;BME280;73087;49.924;22.080;2024-02-16T01:47:05;99537.97;;;2.72;75.07
83191;BME280;73087;49.924;22.080;2024-02-16T01:48:06;99536.47;;;2.66;75.96
83191;BME280;73087;49.924;22.080;2024-02-16T01:49:07;99550.25;;;2.67;75.41
83191;BME280;73087;49.924;22.080;2024-02-16T01:50:09;99543.41;;;2.66;75.39
83191;BME280;73087;49.924;22.080;2024-02-16T01:51:09;99545.22;;;2.64;75.44
83191;BME280;73087;49.924;22.080;2024-02-16T01:52:11;99545.34;;;2.61;74.08
83191;BME280;73087;49.924;22.080;2024-02-16T01:53:12;99541.97;;;2.59;74.57
83191;BME280;73087;49.924;22.080;2024-02-16T01:54:13;99542.88;;;2.58;75.83
83191;BME280;73087;49.924;22.080;2024-02-16T01:55:15;99540.28;;;2.58;75.26
83191;BME280;73087;49.924;22.080;2024-02-16T01:56:16;99545.47;;;2.58;75.47
83191;BME280;73087;49.924;22.080;2024-02-16T01:57:16;99543.78;;;2.57;75.04
83191;BME280;73087;49.924;22.080;2024-02-16T01:58:17;99547.28;;;2.56;75.63
83191;BME280;73087;49.924;22.080;2024-02-16T01:59:18;99530.44;;;2.46;75.61
83191;BME280;73087;49.924;22.080;2024-02-16T02:00:18;99546.38;;;2.57;74.13
83191;BME280;73087;49.924;22.080;2024-02-16T02:01:19;99539.47;;;2.57;74.57
83191;BME280;73087;49.924;22.080;2024-02-16T02:02:21;99548.00;;;2.59;74.86
83191;BME280;73087;49.924;22.080;2024-02-16T02:03:22;99545.34;;;2.61;74.20
83191;BME280;73087;49.924;22.080;2024-02-16T02:04:22;99541.16;;;2.58;75.64
83191;BME280;73087;49.924;22.080;2024-02-16T02:05:23;99545.47;;;2.58;75.14
83191;BME280;73087;49.924;22.080;2024-02-16T02:06:23;99546.38;;;2.57;75.31
83191;BME280;73087;49.924;22.080;2024-02-16T02:07:25;99528.50;;;2.51;74.09
83191;BME280;73087;49.924;22.080;2024-02-16T02:08:26;99549.06;;;2.55;74.12
83191;BME280;73087;49.924;22.080;2024-02-16T02:09:27;99542.38;;;2.50;73.90
83191;BME280;73087;49.924;22.080;2024-02-16T02:10:27;99544.31;;;2.45;74.18
83191;BME280;73087;49.924;22.080;2024-02-16T02:11:28;99546.13;;;2.43;75.16
83191;BME280;73087;49.924;22.080;2024-02-16T02:12:28;99550.44;;;2.42;75.75
83191;BME280;73087;49.924;22.080;2024-02-16T02:13:29;99546.13;;;2.43;75.17
83191;BME280;73087;49.924;22.080;2024-02-16T02:14:29;99546.13;;;2.43;74.79
83191;BME280;73087;49.924;22.080;2024-02-16T02:15:30;99546.00;;;2.46;74.51
83191;BME280;73087;49.924;22.080;2024-02-16T02:16:31;99547.69;;;2.47;74.42
83191;BME280;73087;49.924;22.080;2024-02-16T02:17:32;99540.03;;;2.44;75.40
83191;BME280;73087;49.924;22.080;2024-02-16T02:18:33;99547.69;;;2.47;74.42
83191;BME280;73087;49.924;22.080;2024-02-16T02:19:34;99551.19;;;2.46;74.71
83191;BME280;73087;49.924;22.080;2024-02-16T02:20:35;99546.81;;;2.46;75.46
83191;BME280;73087;49.924;22.080;2024-02-16T02:21:35;99549.50;;;2.45;75.48
83191;BME280;73087;49.924;22.080;2024-02-16T02:22:37;99548.63;;;2.44;74.77
83191;BME280;73087;49.924;22.080;2024-02-16T02:23:38;99556.50;;;2.43;74.75
83191;BME280;73087;49.924;22.080;2024-02-16T02:24:38;99549.63;;;2.42;74.93
83191;BME280;73087;49.924;22.080;2024-02-16T02:25:39;99548.16;;;2.35;74.60
83191;BME280;73087;49.924;22.080;2024-02-16T02:26:40;99553.22;;;2.38;76.14
83191;BME280;73087;49.924;22.080;2024-02-16T02:27:40;99542.84;;;2.38;75.96
83191;BME280;73087;49.924;22.080;2024-02-16T02:28:41;99543.59;;;2.41;76.34
83191;BME280;73087;49.924;22.080;2024-02-16T02:29:41;99542.75;;;2.41;76.46
83191;BME280;73087;49.924;22.080;2024-02-16T02:30:43;99539.13;;;2.45;75.41
83191;BME280;73087;49.924;22.080;2024-02-16T02:31:43;99539.94;;;2.45;76.47
83191;BME280;73087;49.924;22.080;2024-02-16T02:32:44;99547.69;;;2.47;76.11
83191;BME280;73087;49.924;22.080;2024-02-16T02:33:44;99545.88;;;2.49;75.76
83191;BME280;73087;49.924;22.080;2024-02-16T02:34:45;99534.84;;;2.44;74.75
83191;BME280;73087;49.924;22.080;2024-02-16T02:35:46;99544.19;;;2.48;75.68
83191;BME280;73087;49.924;22.080;2024-02-16T02:36:46;99544.06;;;2.51;76.12
83191;BME280;73087;49.924;22.080;2024-02-16T02:37:48;99544.06;;;2.51;75.33
83191;BME280;73087;49.924;22.080;2024-02-16T02:38:48;99531.88;;;2.53;76.43
83191;BME280;73087;49.924;22.080;2024-02-16T02:39:49;99540.41;;;2.55;76.10
83191;BME280;73087;49.924;22.080;2024-02-16T02:40:50;99538.59;;;2.57;75.34
83191;BME280;73087;49.924;22.080;2024-02-16T02:41:50;99538.59;;;2.57;75.61
83191;BME280;73087;49.924;22.080;2024-02-16T02:42:51;99543.78;;;2.57;74.74
83191;BME280;73087;49.924;22.080;2024-02-16T02:43:52;99538.59;;;2.57;75.67
83191;BME280;73087;49.924;22.080;2024-02-16T02:44:53;99531.59;;;2.59;75.58
83191;BME280;73087;49.924;22.080;2024-02-16T02:45:53;99535.97;;;2.58;74.92
83191;BME280;73087;49.924;22.080;2024-02-16T02:46:54;99535.97;;;2.58;75.59
83191;BME280;73087;49.924;22.080;2024-02-16T02:47:54;99542.09;;;2.56;74.68
83191;BME280;73087;49.924;22.080;2024-02-16T02:48:55;99531.88;;;2.53;74.68
83191;BME280;73087;49.924;22.080;2024-02-16T02:49:55;99539.00;;;2.48;75.37
83191;BME280;73087;49.924;22.080;2024-02-16T02:50:56;99527.22;;;2.41;75.65
83191;BME280;73087;49.924;22.080;2024-02-16T02:51:56;99539.25;;;2.42;74.05
83191;BME280;73087;49.924;22.080;2024-02-16T02:52:58;99542.75;;;2.41;74.30
83191;BME280;73087;49.924;22.080;2024-02-16T02:53:59;99534.97;;;2.41;75.91
83191;BME280;73087;49.924;22.080;2024-02-16T02:54:59;99539.25;;;2.42;76.03
83191;BME280;73087;49.924;22.080;2024-02-16T02:56:00;99540.94;;;2.43;76.13
83191;BME280;73087;49.924;22.080;2024-02-16T02:57:01;99532.13;;;2.47;74.54
83191;BME280;73087;49.924;22.080;2024-02-16T02:58:02;99538.13;;;2.47;75.90
83191;BME280;73087;49.924;22.080;2024-02-16T02:59:02;99539.00;;;2.48;75.86
83191;BME280;73087;49.924;22.080;2024-02-16T03:00:04;99534.59;;;2.50;75.40
83191;BME280;73087;49.924;22.080;2024-02-16T03:01:05;99533.69;;;2.51;74.29
83191;BME280;73087;49.924;22.080;2024-02-16T03:02:05;99538.88;;;2.51;76.02
83191;BME280;73087;49.924;22.080;2024-02-16T03:03:06;99538.88;;;2.51;74.65
83191;BME280;73087;49.924;22.080;2024-02-16T03:04:06;99544.06;;;2.51;76.11
83191;BME280;73087;49.924;22.080;2024-02-16T03:05:07;99538.88;;;2.51;74.39
83191;BME280;73087;49.924;22.080;2024-02-16T03:06:08;99518.88;;;2.33;74.73
83191;BME280;73087;49.924;22.080;2024-02-16T03:07:09;99535.50;;;2.49;75.91
83191;BME280;73087;49.924;22.080;2024-02-16T03:08:11;99542.38;;;2.50;74.44
83191;BME280;73087;49.924;22.080;2024-02-16T03:09:11;99542.38;;;2.50;76.02
83191;BME280;73087;49.924;22.080;2024-02-16T03:10:12;99538.13;;;2.47;74.44
83191;BME280;73087;49.924;22.080;2024-02-16T03:11:13;99540.81;;;2.46;74.67
83191;BME280;73087;49.924;22.080;2024-02-16T03:12:13;99540.81;;;2.46;74.98
83191;BME280;73087;49.924;22.080;2024-02-16T03:13:14;99544.31;;;2.45;75.22
83191;BME280;73087;49.924;22.080;2024-02-16T03:14:14;99540.09;;;2.42;75.16
83191;BME280;73087;49.924;22.080;2024-02-16T03:15:15;99542.75;;;2.41;75.30
83191;BME280;73087;49.924;22.080;2024-02-16T03:16:16;99539.25;;;2.42;74.73
83191;BME280;73087;49.924;22.080;2024-02-16T03:17:16;99539.25;;;2.42;74.61
83191;BME280;73087;49.924;22.080;2024-02-16T03:18:17;99544.44;;;2.42;74.87
83191;BME280;73087;49.924;22.080;2024-02-16T03:19:17;99540.94;;;2.43;74.41
83191;BME280;73087;49.924;22.080;2024-02-16T03:20:18;99540.94;;;2.43;75.37
83191;BME280;73087;49.924;22.080;2024-02-16T03:21:18;99473.38;;;2.06;76.03
83191;BME280;73087;49.924;22.080;2024-02-16T03:22:20;99540.94;;;2.43;74.84
83191;BME280;73087;49.924;22.080;2024-02-16T03:23:22;99541.78;;;2.43;74.95
83191;BME280;73087;49.924;22.080;2024-02-16T03:24:23;99537.56;;;2.41;75.38
83191;BME280;73087;49.924;22.080;2024-02-16T03:25:23;99537.56;;;2.41;75.60
83191;BME280;73087;49.924;22.080;2024-02-16T03:26:24;99537.56;;;2.41;75.83
83191;BME280;73087;49.924;22.080;2024-02-16T03:27:24;99539.25;;;2.42;74.77
83191;BME280;73087;49.924;22.080;2024-02-16T03:28:25;99546.13;;;2.43;74.19
83191;BME280;73087;49.924;22.080;2024-02-16T03:29:25;99539.25;;;2.42;75.53
83191;BME280;73087;49.924;22.080;2024-02-16T03:30:26;99537.66;;;2.38;74.47
83191;BME280;73087;49.924;22.080;2024-02-16T03:31:26;99539.34;;;2.39;75.43
83191;BME280;73087;49.924;22.080;2024-02-16T03:32:27;99545.53;;;2.36;75.18
83191;BME280;73087;49.924;22.080;2024-02-16T03:33:27;99552.53;;;2.34;74.65
83191;BME280;73087;49.924;22.080;2024-02-16T03:34:28;99544.78;;;2.33;74.72
83191;BME280;73087;49.924;22.080;2024-02-16T03:35:29;99540.53;;;2.32;74.62
83191;BME280;73087;49.924;22.080;2024-02-16T03:36:29;99544.78;;;2.33;75.18
83191;BME280;73087;49.924;22.080;2024-02-16T03:37:30;99545.69;;;2.32;74.80
83191;BME280;73087;49.924;22.080;2024-02-16T03:38:32;99546.56;;;2.32;75.17
83191;BME280;73087;49.924;22.080;2024-02-16T03:39:32;99544.78;;;2.33;74.75
83191;BME280;73087;49.924;22.080;2024-02-16T03:40:33;99542.16;;;2.34;74.92
83191;BME280;73087;49.924;22.080;2024-02-16T03:41:33;99534.44;;;2.33;74.42
83191;BME280;73087;49.924;22.080;2024-02-16T03:42:34;99537.81;;;2.35;75.10
83191;BME280;73087;49.924;22.080;2024-02-16T03:43:34;99540.34;;;2.36;75.24
83191;BME280;73087;49.924;22.080;2024-02-16T03:44:35;99542.84;;;2.38;75.52
83191;BME280;73087;49.924;22.080;2024-02-16T03:45:36;99541.28;;;2.34;74.87
83191;BME280;73087;49.924;22.080;2024-02-16T03:46:36;99537.81;;;2.35;75.90
83191;BME280;73087;49.924;22.080;2024-02-16T03:47:37;99546.47;;;2.34;75.18
83191;BME280;73087;49.924;22.080;2024-02-16T03:48:40;99550.84;;;2.33;74.22
83191;BME280;73087;49.924;22.080;2024-02-16T03:49:42;99551.66;;;2.34;75.09
83191;BME280;73087;49.924;22.080;2024-02-16T03:50:43;99553.34;;;2.35;74.92
83191;BME280;73087;49.924;22.080;2024-02-16T03:51:43;99553.34;;;2.35;75.64
83191;BME280;73087;49.924;22.080;2024-02-16T03:52:44;99555.16;;;2.33;75.00
83191;BME280;73087;49.924;22.080;2024-02-16T03:53:46;99550.75;;;2.35;75.39
83191;BME280;73087;49.924;22.080;2024-02-16T03:54:47;99549.06;;;2.34;74.48
83191;BME280;73087;49.924;22.080;2024-02-16T03:55:47;99546.59;;;2.31;75.05
83191;BME280;73087;49.924;22.080;2024-02-16T03:56:48;99547.47;;;2.31;75.63
83191;BME280;73087;49.924;22.080;2024-02-16T03:57:48;99545.06;;;2.27;73.99
83191;BME280;73087;49.924;22.080;2024-02-16T03:58:49;99546.88;;;2.25;75.58
83191;BME280;73087;49.924;22.080;2024-02-16T03:59:49;99548.56;;;2.26;74.25
83191;BME280;73087;49.924;22.080;2024-02-16T04:00:50;99553.72;;;2.26;75.70
83191;BME280;73087;49.924;22.080;2024-02-16T04:01:51;99550.22;;;2.27;74.80
83191;BME280;73087;49.924;22.080;2024-02-16T04:02:52;99552.81;;;2.27;75.84
83191;BME280;73087;49.924;22.080;2024-02-16T04:03:52;99555.41;;;2.27;74.66
83191;BME280;73087;49.924;22.080;2024-02-16T04:04:53;99557.09;;;2.28;75.04
83191;BME280;73087;49.924;22.080;2024-02-16T04:05:53;99553.59;;;2.29;75.75
83191;BME280;73087;49.924;22.080;2024-02-16T04:06:54;99563.97;;;2.29;74.35
83191;BME280;73087;49.924;22.080;2024-02-16T04:07:54;99553.59;;;2.29;74.04
83191;BME280;73087;49.924;22.080;2024-02-16T04:08:56;99552.00;;;2.26;74.01
83191;BME280;73087;49.924;22.080;2024-02-16T04:09:57;99557.22;;;2.25;75.51
83191;BME280;73087;49.924;22.080;2024-02-16T04:10:57;99557.34;;;2.22;75.63
83191;BME280;73087;49.924;22.080;2024-02-16T04:11:58;99559.16;;;2.20;75.87
83191;BME280;73087;49.924;22.080;2024-02-16T04:12:58;99553.06;;;2.21;75.64
83191;BME280;73087;49.924;22.080;2024-02-16T04:13:59;99562.53;;;2.22;74.58
83191;BME280;73087;49.924;22.080;2024-02-16T04:15:00;99560.84;;;2.21;75.99
83191;BME280;73087;49.924;22.080;2024-02-16T04:16:00;99554.09;;;2.17;74.39
83191;BME280;73087;49.924;22.080;2024-02-16T04:17:01;99555.91;;;2.15;75.24
83191;BME280;73087;49.924;22.080;2024-02-16T04:18:01;99564.59;;;2.14;74.79
83191;BME280;73087;49.924;22.080;2024-02-16T04:19:02;99555.25;;;2.10;75.14
83191;BME280;73087;49.924;22.080;2024-02-16T04:20:03;99558.06;;;2.04;73.91
83191;BME280;73087;49.924;22.080;2024-02-16T04:21:04;99560.00;;;1.99;74.11
83191;BME280;73087;49.924;22.080;2024-02-16T04:22:05;99556.63;;;1.97;74.30
83191;BME280;73087;49.924;22.080;2024-02-16T04:23:05;99563.63;;;1.95;74.30
83191;BME280;73087;49.924;22.080;2024-02-16T04:24:07;99565.44;;;1.93;75.48
83191;BME280;73087;49.924;22.080;2024-02-16T04:25:08;99562.19;;;1.88;75.75
83191;BME280;73087;49.924;22.080;2024-02-16T04:26:09;99565.66;;;1.87;75.02
83191;BME280;73087;49.924;22.080;2024-02-16T04:27:09;99558.03;;;1.84;75.94
83191;BME280;73087;49.924;22.080;2024-02-16T04:28:10;99559.06;;;1.80;74.42
83191;BME280;73087;49.924;22.080;2024-02-16T04:29:10;99557.25;;;1.82;74.91
83191;BME280;73087;49.924;22.080;2024-02-16T04:30:11;99565.91;;;1.81;74.60
83191;BME280;73087;49.924;22.080;2024-02-16T04:31:12;99552.19;;;1.79;76.18
83191;BME280;73087;49.924;22.080;2024-02-16T04:32:12;99560.84;;;1.78;74.85
83191;BME280;73087;49.924;22.080;2024-02-16T04:33:13;99564.34;;;1.77;75.54
83191;BME280;73087;49.924;22.080;2024-02-16T04:34:13;99564.22;;;1.80;76.12
83191;BME280;73087;49.924;22.080;2024-02-16T04:35:14;99558.94;;;1.83;76.55
83191;BME280;73087;49.924;22.080;2024-02-16T04:36:14;99558.81;;;1.86;76.58
83191;BME280;73087;49.924;22.080;2024-02-16T04:37:16;99560.50;;;1.87;74.81
83191;BME280;73087;49.924;22.080;2024-02-16T04:38:17;99555.31;;;1.87;76.04
83191;BME280;73087;49.924;22.080;2024-02-16T04:39:19;99563.97;;;1.86;75.80
83191;BME280;73087;49.924;22.080;2024-02-16T04:40:19;99560.50;;;1.87;75.79
83191;BME280;73087;49.924;22.080;2024-02-16T04:41:20;99563.97;;;1.86;75.15
83191;BME280;73087;49.924;22.080;2024-02-16T04:42:20;99560.63;;;1.84;76.19
83191;BME280;73087;49.924;22.080;2024-02-16T04:43:21;99562.19;;;1.88;76.18
83191;BME280;73087;49.924;22.080;2024-02-16T04:44:21;99567.22;;;1.91;76.20
83191;BME280;73087;49.924;22.080;2024-02-16T04:45:22;99563.75;;;1.92;76.39
83191;BME280;73087;49.924;22.080;2024-02-16T04:46:22;99555.94;;;1.93;75.82
83191;BME280;73087;49.924;22.080;2024-02-16T04:47:25;99558.56;;;1.92;74.78
83191;BME280;73087;49.924;22.080;2024-02-16T04:48:25;99563.63;;;1.95;74.91
83191;BME280;73087;49.924;22.080;2024-02-16T04:49:26;99557.66;;;1.93;74.94
83191;BME280;73087;49.924;22.080;2024-02-16T04:50:26;99557.00;;;1.88;75.92
83191;BME280;73087;49.924;22.080;2024-02-16T04:51:27;99561.31;;;1.87;74.41
83191;BME280;73087;49.924;22.080;2024-02-16T04:52:27;99556.34;;;1.83;76.08
83191;BME280;73087;49.924;22.080;2024-02-16T04:53:28;99557.13;;;1.85;74.85
83191;BME280;73087;49.924;22.080;2024-02-16T04:54:30;99565.78;;;1.84;75.10
83191;BME280;73087;49.924;22.080;2024-02-16T04:55:31;99562.31;;;1.85;75.39
83191;BME280;73087;49.924;22.080;2024-02-16T04:56:31;99559.59;;;1.88;74.97
83191;BME280;73087;49.924;22.080;2024-02-16T04:57:32;99559.50;;;1.89;75.35
83191;BME280;73087;49.924;22.080;2024-02-16T04:58:33;99563.63;;;1.95;75.03
83191;BME280;73087;49.924;22.080;2024-02-16T04:59:33;99560.13;;;1.96;75.76
83191;BME280;73087;49.924;22.080;2024-02-16T05:00:34;99556.63;;;1.97;74.54
83191;BME280;73087;49.924;22.080;2024-02-16T05:01:34;99556.63;;;1.97;74.40
83191;BME280;73087;49.924;22.080;2024-02-16T05:02:35;99551.44;;;1.97;75.38
83191;BME280;73087;49.924;22.080;2024-02-16T05:03:36;99553.13;;;1.98;74.56
83191;BME280;73087;49.924;22.080;2024-02-16T05:04:36;99559.22;;;1.97;75.89
83191;BME280;73087;49.924;22.080;2024-02-16T05:05:37;99566.16;;;1.96;75.34
83191;BME280;73087;49.924;22.080;2024-02-16T05:06:38;99558.44;;;1.95;74.75
83191;BME280;73087;49.924;22.080;2024-02-16T05:07:39;99555.06;;;1.93;75.63
83191;BME280;73087;49.924;22.080;2024-02-16T05:08:39;99556.75;;;1.94;74.52
83191;BME280;73087;49.924;22.080;2024-02-16T05:09:41;99556.75;;;1.94;75.71
83191;BME280;73087;49.924;22.080;2024-02-16T05:10:42;99562.06;;;1.91;74.54
83191;BME280;73087;49.924;22.080;2024-02-16T05:11:42;99557.00;;;1.88;75.22
83191;BME280;73087;49.924;22.080;2024-02-16T05:12:43;99555.31;;;1.87;75.67
83191;BME280;73087;49.924;22.080;2024-02-16T05:13:43;99560.50;;;1.87;75.76
83191;BME280;73087;49.924;22.080;2024-02-16T05:14:47;99560.53;;;1.85;76.07
83191;BME280;73087;49.924;22.080;2024-02-16T05:15:48;99562.31;;;1.85;75.76
83191;BME280;73087;49.924;22.080;2024-02-16T05:16:48;99562.31;;;1.85;74.99
83191;BME280;73087;49.924;22.080;2024-02-16T05:17:49;99562.31;;;1.85;74.81
83191;BME280;73087;49.924;22.080;2024-02-16T05:18:49;99558.81;;;1.86;76.76
83191;BME280;73087;49.924;22.080;2024-02-16T05:19:50;99562.06;;;1.91;75.60
83191;BME280;73087;49.924;22.080;2024-02-16T05:20:51;99555.94;;;1.93;75.75
83191;BME280;73087;49.924;22.080;2024-02-16T05:21:51;99560.00;;;1.99;75.44